sensor_id;sensor_type;location;lat;lon;timestamp;P1;durP1;ratioP1;P2;durP2;ratioP2
48327;SDS011;34136;51.022;7.082;2023-05-07T00:00:29;4.75;;;2.40;;
48327;SDS011;34136;51.022;7.082;2023-05-07T00:03:15;3.47;;;2.30;;
48327;SDS011;34136;51.022;7.082;2023-05-07T00:06:02;6.00;;;2.38;;
48327;SDS011;34136;51.022;7.082;2023-05-07T00:08:48;5.53;;;2.35;;
48327;SDS011;34136;51.022;7.082;2023-05-07T00:11:34;4.50;;;2.42;;
48327;SDS011;34136;51.022;7.082;2023-05-07T00:14:20;6.45;;;2.70;;
48327;SDS011;34136;51.022;7.082;2023-05-07T00:17:06;4.65;;;3.30;;
48327;SDS011;34136;51.022;7.082;2023-05-07T00:19:53;5.57;;;2.35;;
48327;SDS011;34136;51.022;7.082;2023-05-07T00:22:39;7.60;;;2.40;;
48327;SDS011;34136;51.022;7.082;2023-05-07T00:25:25;5.70;;;2.67;;
48327;SDS011;34136;51.022;7.082;2023-05-07T00:28:11;5.32;;;2.60;;
48327;SDS011;34136;51.022;7.082;2023-05-07T00:30:57;5.30;;;3.33;;
48327;SDS011;34136;51.022;7.082;2023-05-07T00:33:45;4.10;;;2.85;;
48327;SDS011;34136;51.022;7.082;2023-05-07T00:36:31;4.90;;;2.80;;
48327;SDS011;34136;51.022;7.082;2023-05-07T00:39:17;4.47;;;2.50;;
48327;SDS011;34136;51.022;7.082;2023-05-07T00:42:03;5.55;;;2.33;;
48327;SDS011;34136;51.022;7.082;2023-05-07T00:44:49;6.45;;;2.72;;
48327;SDS011;34136;51.022;7.082;2023-05-07T00:47:36;5.18;;;2.70;;
48327;SDS011;34136;51.022;7.082;2023-05-07T00:50:22;4.30;;;2.65;;
48327;SDS011;34136;51.022;7.082;2023-05-07T00:53:08;5.50;;;2.97;;
48327;SDS011;34136;51.022;7.082;2023-05-07T00:55:55;5.00;;;2.50;;
48327;SDS011;34136;51.022;7.082;2023-05-07T00:58:41;5.72;;;2.28;;
48327;SDS011;34136;51.022;7.082;2023-05-07T01:01:28;4.57;;;2.55;;
48327;SDS011;34136;51.022;7.082;2023-05-07T01:04:15;6.32;;;2.67;;
48327;SDS011;34136;51.022;7.082;2023-05-07T01:07:01;3.88;;;2.55;;
48327;SDS011;34136;51.022;7.082;2023-05-07T01:09:47;6.07;;;2.55;;
48327;SDS011;34136;51.022;7.082;2023-05-07T01:12:34;4.95;;;2.55;;
48327;SDS011;34136;51.022;7.082;2023-05-07T01:15:22;3.38;;;2.28;;
48327;SDS011;34136;51.022;7.082;2023-05-07T01:18:09;8.57;;;2.20;;
48327;SDS011;34136;51.022;7.082;2023-05-07T01:20:57;4.05;;;2.22;;
48327;SDS011;34136;51.022;7.082;2023-05-07T01:23:45;5.00;;;2.17;;
48327;SDS011;34136;51.022;7.082;2023-05-07T01:26:32;9.93;;;2.60;;
48327;SDS011;34136;51.022;7.082;2023-05-07T01:29:18;10.60;;;2.70;;
48327;SDS011;34136;51.022;7.082;2023-05-07T01:32:06;7.95;;;2.13;;
48327;SDS011;34136;51.022;7.082;2023-05-07T01:34:53;3.95;;;2.05;;
48327;SDS011;34136;51.022;7.082;2023-05-07T01:37:41;9.68;;;2.33;;
48327;SDS011;34136;51.022;7.082;2023-05-07T01:40:27;8.15;;;2.58;;
48327;SDS011;34136;51.022;7.082;2023-05-07T01:43:14;5.10;;;2.05;;
48327;SDS011;34136;51.022;7.082;2023-05-07T01:46:01;6.70;;;2.13;;
48327;SDS011;34136;51.022;7.082;2023-05-07T01:48:48;4.05;;;2.35;;
48327;SDS011;34136;51.022;7.082;2023-05-07T01:51:35;3.83;;;2.05;;
48327;SDS011;34136;51.022;7.082;2023-05-07T01:54:25;5.25;;;2.05;;
48327;SDS011;34136;51.022;7.082;2023-05-07T01:57:12;5.85;;;2.03;;
48327;SDS011;34136;51.022;7.082;2023-05-07T01:59:58;5.13;;;2.10;;
48327;SDS011;34136;51.022;7.082;2023-05-07T02:02:44;3.80;;;2.20;;
48327;SDS011;34136;51.022;7.082;2023-05-07T02:05:43;6.55;;;2.30;;
48327;SDS011;34136;51.022;7.082;2023-05-07T02:08:42;3.65;;;1.88;;
48327;SDS011;34136;51.022;7.082;2023-05-07T02:11:30;3.97;;;2.03;;
48327;SDS011;34136;51.022;7.082;2023-05-07T02:14:17;4.28;;;1.90;;
48327;SDS011;34136;51.022;7.082;2023-05-07T02:17:03;3.78;;;2.10;;
48327;SDS011;34136;51.022;7.082;2023-05-07T02:19:50;5.03;;;1.95;;
48327;SDS011;34136;51.022;7.082;2023-05-07T02:22:36;4.40;;;2.30;;
48327;SDS011;34136;51.022;7.082;2023-05-07T02:25:23;4.07;;;1.70;;
48327;SDS011;34136;51.022;7.082;2023-05-07T02:28:09;6.93;;;2.10;;
48327;SDS011;34136;51.022;7.082;2023-05-07T02:31:16;4.47;;;2.90;;
48327;SDS011;34136;51.022;7.082;2023-05-07T02:34:03;4.82;;;2.20;;
48327;SDS011;34136;51.022;7.082;2023-05-07T02:36:49;4.20;;;2.25;;
48327;SDS011;34136;51.022;7.082;2023-05-07T02:39:40;4.80;;;2.40;;
48327;SDS011;34136;51.022;7.082;2023-05-07T02:42:26;5.40;;;2.25;;
48327;SDS011;34136;51.022;7.082;2023-05-07T02:45:13;4.82;;;2.05;;
48327;SDS011;34136;51.022;7.082;2023-05-07T02:47:59;6.60;;;2.00;;
48327;SDS011;34136;51.022;7.082;2023-05-07T02:50:45;5.40;;;2.10;;
48327;SDS011;34136;51.022;7.082;2023-05-07T02:53:33;3.67;;;2.20;;
48327;SDS011;34136;51.022;7.082;2023-05-07T02:56:20;4.38;;;1.77;;
48327;SDS011;34136;51.022;7.082;2023-05-07T02:59:06;4.45;;;1.90;;
48327;SDS011;34136;51.022;7.082;2023-05-07T03:01:57;4.40;;;2.22;;
48327;SDS011;34136;51.022;7.082;2023-05-07T03:04:43;6.18;;;2.08;;
48327;SDS011;34136;51.022;7.082;2023-05-07T03:07:30;3.95;;;1.83;;
48327;SDS011;34136;51.022;7.082;2023-05-07T03:10:17;3.30;;;1.88;;
48327;SDS011;34136;51.022;7.082;2023-05-07T03:13:04;4.10;;;2.03;;
48327;SDS011;34136;51.022;7.082;2023-05-07T03:15:50;4.07;;;1.83;;
48327;SDS011;34136;51.022;7.082;2023-05-07T03:18:37;3.58;;;2.05;;
48327;SDS011;34136;51.022;7.082;2023-05-07T03:21:23;5.93;;;2.58;;
48327;SDS011;34136;51.022;7.082;2023-05-07T03:24:10;3.92;;;2.15;;
48327;SDS011;34136;51.022;7.082;2023-05-07T03:26:56;5.55;;;2.13;;
48327;SDS011;34136;51.022;7.082;2023-05-07T03:29:42;4.65;;;2.15;;
48327;SDS011;34136;51.022;7.082;2023-05-07T03:32:28;3.58;;;2.20;;
48327;SDS011;34136;51.022;7.082;2023-05-07T03:35:15;6.32;;;2.50;;
48327;SDS011;34136;51.022;7.082;2023-05-07T03:38:01;3.08;;;2.03;;
48327;SDS011;34136;51.022;7.082;2023-05-07T03:40:51;3.20;;;2.33;;
48327;SDS011;34136;51.022;7.082;2023-05-07T03:43:38;3.47;;;2.10;;
48327;SDS011;34136;51.022;7.082;2023-05-07T03:46:28;5.10;;;2.15;;
48327;SDS011;34136;51.022;7.082;2023-05-07T03:49:15;3.95;;;2.30;;
48327;SDS011;34136;51.022;7.082;2023-05-07T03:52:02;4.45;;;2.30;;
48327;SDS011;34136;51.022;7.082;2023-05-07T03:54:50;4.20;;;2.00;;
48327;SDS011;34136;51.022;7.082;2023-05-07T03:57:36;6.10;;;2.50;;
48327;SDS011;34136;51.022;7.082;2023-05-07T04:00:23;6.13;;;2.80;;
48327;SDS011;34136;51.022;7.082;2023-05-07T04:03:09;5.93;;;2.90;;
48327;SDS011;34136;51.022;7.082;2023-05-07T04:05:56;6.45;;;2.60;;
48327;SDS011;34136;51.022;7.082;2023-05-07T04:08:43;5.47;;;3.00;;
48327;SDS011;34136;51.022;7.082;2023-05-07T04:11:30;5.03;;;3.08;;
48327;SDS011;34136;51.022;7.082;2023-05-07T04:14:17;6.00;;;2.53;;
48327;SDS011;34136;51.022;7.082;2023-05-07T04:17:04;5.75;;;3.03;;
48327;SDS011;34136;51.022;7.082;2023-05-07T04:19:50;4.65;;;2.55;;
48327;SDS011;34136;51.022;7.082;2023-05-07T04:22:37;7.22;;;3.08;;
48327;SDS011;34136;51.022;7.082;2023-05-07T04:25:24;7.00;;;3.15;;
48327;SDS011;34136;51.022;7.082;2023-05-07T04:28:10;8.43;;;2.65;;
48327;SDS011;34136;51.022;7.082;2023-05-07T04:30:59;4.35;;;2.42;;
48327;SDS011;34136;51.022;7.082;2023-05-07T04:33:46;5.03;;;2.30;;
48327;SDS011;34136;51.022;7.082;2023-05-07T04:36:34;6.05;;;2.33;;
48327;SDS011;34136;51.022;7.082;2023-05-07T04:39:24;6.75;;;2.20;;
48327;SDS011;34136;51.022;7.082;2023-05-07T04:42:14;4.03;;;2.00;;
48327;SDS011;34136;51.022;7.082;2023-05-07T04:45:01;5.10;;;2.15;;
48327;SDS011;34136;51.022;7.082;2023-05-07T04:47:51;4.68;;;2.20;;
48327;SDS011;34136;51.022;7.082;2023-05-07T04:50:38;3.45;;;1.80;;
48327;SDS011;34136;51.022;7.082;2023-05-07T04:53:25;4.05;;;2.15;;
48327;SDS011;34136;51.022;7.082;2023-05-07T04:56:13;4.00;;;2.10;;
48327;SDS011;34136;51.022;7.082;2023-05-07T04:59:02;7.78;;;2.33;;
48327;SDS011;34136;51.022;7.082;2023-05-07T05:01:50;6.78;;;2.10;;
48327;SDS011;34136;51.022;7.082;2023-05-07T05:04:37;7.40;;;1.88;;
48327;SDS011;34136;51.022;7.082;2023-05-07T05:07:24;7.65;;;2.05;;
48327;SDS011;34136;51.022;7.082;2023-05-07T05:10:11;6.43;;;2.03;;
48327;SDS011;34136;51.022;7.082;2023-05-07T05:12:59;6.93;;;2.20;;
48327;SDS011;34136;51.022;7.082;2023-05-07T05:15:46;6.63;;;2.10;;
48327;SDS011;34136;51.022;7.082;2023-05-07T05:18:33;6.13;;;2.35;;
48327;SDS011;34136;51.022;7.082;2023-05-07T05:21:19;5.00;;;2.15;;
48327;SDS011;34136;51.022;7.082;2023-05-07T05:24:09;5.78;;;2.20;;
48327;SDS011;34136;51.022;7.082;2023-05-07T05:26:57;5.78;;;1.98;;
48327;SDS011;34136;51.022;7.082;2023-05-07T05:29:44;2.92;;;1.60;;
48327;SDS011;34136;51.022;7.082;2023-05-07T05:32:30;3.70;;;2.00;;
48327;SDS011;34136;51.022;7.082;2023-05-07T05:35:17;4.20;;;2.05;;
48327;SDS011;34136;51.022;7.082;2023-05-07T05:38:03;6.32;;;2.20;;
48327;SDS011;34136;51.022;7.082;2023-05-07T05:40:50;4.43;;;2.10;;
48327;SDS011;34136;51.022;7.082;2023-05-07T05:43:37;5.03;;;1.98;;
48327;SDS011;34136;51.022;7.082;2023-05-07T05:46:25;6.18;;;2.10;;
48327;SDS011;34136;51.022;7.082;2023-05-07T05:49:11;5.63;;;1.95;;
48327;SDS011;34136;51.022;7.082;2023-05-07T05:51:59;4.30;;;1.90;;
48327;SDS011;34136;51.022;7.082;2023-05-07T05:54:46;3.08;;;2.08;;
48327;SDS011;34136;51.022;7.082;2023-05-07T05:57:33;2.83;;;1.95;;
48327;SDS011;34136;51.022;7.082;2023-05-07T06:00:20;3.38;;;2.00;;
48327;SDS011;34136;51.022;7.082;2023-05-07T06:03:06;2.30;;;1.67;;
48327;SDS011;34136;51.022;7.082;2023-05-07T06:05:54;7.45;;;2.42;;
48327;SDS011;34136;51.022;7.082;2023-05-07T06:08:41;3.28;;;1.90;;
48327;SDS011;34136;51.022;7.082;2023-05-07T06:11:31;5.82;;;2.20;;
48327;SDS011;34136;51.022;7.082;2023-05-07T06:14:18;1.83;;;1.55;;
48327;SDS011;34136;51.022;7.082;2023-05-07T06:17:05;2.80;;;1.85;;
48327;SDS011;34136;51.022;7.082;2023-05-07T06:19:51;4.70;;;1.98;;
48327;SDS011;34136;51.022;7.082;2023-05-07T06:22:39;3.15;;;2.15;;
48327;SDS011;34136;51.022;7.082;2023-05-07T06:25:27;6.65;;;2.08;;
48327;SDS011;34136;51.022;7.082;2023-05-07T06:28:13;3.80;;;1.80;;
48327;SDS011;34136;51.022;7.082;2023-05-07T06:31:18;3.63;;;1.90;;
48327;SDS011;34136;51.022;7.082;2023-05-07T06:34:11;3.30;;;1.90;;
48327;SDS011;34136;51.022;7.082;2023-05-07T06:36:57;3.50;;;1.88;;
48327;SDS011;34136;51.022;7.082;2023-05-07T06:39:54;4.57;;;1.95;;
48327;SDS011;34136;51.022;7.082;2023-05-07T06:42:41;3.35;;;1.70;;
48327;SDS011;34136;51.022;7.082;2023-05-07T06:45:53;3.33;;;2.00;;
48327;SDS011;34136;51.022;7.082;2023-05-07T06:48:41;8.65;;;2.58;;
48327;SDS011;34136;51.022;7.082;2023-05-07T06:51:27;3.40;;;2.13;;
48327;SDS011;34136;51.022;7.082;2023-05-07T06:54:15;3.40;;;1.90;;
48327;SDS011;34136;51.022;7.082;2023-05-07T06:57:03;3.58;;;1.92;;
48327;SDS011;34136;51.022;7.082;2023-05-07T06:59:50;2.65;;;1.60;;
48327;SDS011;34136;51.022;7.082;2023-05-07T07:02:38;4.25;;;1.92;;
48327;SDS011;34136;51.022;7.082;2023-05-07T07:05:25;4.82;;;1.70;;
48327;SDS011;34136;51.022;7.082;2023-05-07T07:08:11;4.28;;;1.92;;
48327;SDS011;34136;51.022;7.082;2023-05-07T07:10:58;3.88;;;1.80;;
48327;SDS011;34136;51.022;7.082;2023-05-07T07:13:45;2.90;;;1.77;;
48327;SDS011;34136;51.022;7.082;2023-05-07T07:16:31;3.67;;;1.75;;
48327;SDS011;34136;51.022;7.082;2023-05-07T07:19:18;6.00;;;1.60;;
48327;SDS011;34136;51.022;7.082;2023-05-07T07:22:06;3.63;;;1.55;;
48327;SDS011;34136;51.022;7.082;2023-05-07T07:24:53;3.10;;;1.35;;
48327;SDS011;34136;51.022;7.082;2023-05-07T07:27:40;3.60;;;1.65;;
48327;SDS011;34136;51.022;7.082;2023-05-07T07:30:27;3.97;;;1.50;;
48327;SDS011;34136;51.022;7.082;2023-05-07T07:33:13;3.10;;;1.40;;
48327;SDS011;34136;51.022;7.082;2023-05-07T07:36:00;1.80;;;1.40;;
48327;SDS011;34136;51.022;7.082;2023-05-07T07:38:47;2.65;;;1.27;;
48327;SDS011;34136;51.022;7.082;2023-05-07T07:41:34;2.72;;;1.30;;
48327;SDS011;34136;51.022;7.082;2023-05-07T07:44:20;3.20;;;1.20;;
48327;SDS011;34136;51.022;7.082;2023-05-07T07:47:11;3.85;;;1.40;;
48327;SDS011;34136;51.022;7.082;2023-05-07T07:49:58;4.50;;;1.20;;
48327;SDS011;34136;51.022;7.082;2023-05-07T07:52:44;5.10;;;1.50;;
48327;SDS011;34136;51.022;7.082;2023-05-07T07:55:37;2.10;;;1.40;;
48327;SDS011;34136;51.022;7.082;2023-05-07T07:58:24;2.58;;;1.20;;
48327;SDS011;34136;51.022;7.082;2023-05-07T08:01:12;2.25;;;1.35;;
48327;SDS011;34136;51.022;7.082;2023-05-07T08:03:58;3.58;;;1.17;;
48327;SDS011;34136;51.022;7.082;2023-05-07T08:06:45;2.60;;;1.52;;
48327;SDS011;34136;51.022;7.082;2023-05-07T08:09:32;3.20;;;1.45;;
48327;SDS011;34136;51.022;7.082;2023-05-07T08:12:19;3.63;;;1.52;;
48327;SDS011;34136;51.022;7.082;2023-05-07T08:15:06;2.78;;;1.40;;
48327;SDS011;34136;51.022;7.082;2023-05-07T08:17:53;2.97;;;1.55;;
48327;SDS011;34136;51.022;7.082;2023-05-07T08:20:39;3.83;;;1.77;;
48327;SDS011;34136;51.022;7.082;2023-05-07T08:23:28;3.15;;;1.67;;
48327;SDS011;34136;51.022;7.082;2023-05-07T08:26:14;3.22;;;1.30;;
48327;SDS011;34136;51.022;7.082;2023-05-07T08:29:02;3.65;;;1.58;;
48327;SDS011;34136;51.022;7.082;2023-05-07T08:31:48;1.75;;;1.30;;
48327;SDS011;34136;51.022;7.082;2023-05-07T08:34:34;1.88;;;1.38;;
48327;SDS011;34136;51.022;7.082;2023-05-07T08:37:22;2.92;;;1.63;;
48327;SDS011;34136;51.022;7.082;2023-05-07T08:40:09;3.33;;;1.80;;
48327;SDS011;34136;51.022;7.082;2023-05-07T08:42:56;2.55;;;1.20;;
48327;SDS011;34136;51.022;7.082;2023-05-07T08:45:45;1.70;;;1.10;;
48327;SDS011;34136;51.022;7.082;2023-05-07T08:48:36;3.10;;;1.13;;
48327;SDS011;34136;51.022;7.082;2023-05-07T08:51:31;2.05;;;1.20;;
48327;SDS011;34136;51.022;7.082;2023-05-07T08:54:17;2.95;;;1.30;;
48327;SDS011;34136;51.022;7.082;2023-05-07T08:57:04;7.80;;;1.40;;
48327;SDS011;34136;51.022;7.082;2023-05-07T08:59:52;2.88;;;1.40;;
48327;SDS011;34136;51.022;7.082;2023-05-07T09:02:39;3.55;;;1.60;;
48327;SDS011;34136;51.022;7.082;2023-05-07T09:05:26;4.25;;;1.50;;
48327;SDS011;34136;51.022;7.082;2023-05-07T09:08:14;4.07;;;1.52;;
48327;SDS011;34136;51.022;7.082;2023-05-07T09:11:02;1.65;;;1.35;;
48327;SDS011;34136;51.022;7.082;2023-05-07T09:13:52;3.20;;;1.50;;
48327;SDS011;34136;51.022;7.082;2023-05-07T09:16:43;4.10;;;1.77;;
48327;SDS011;34136;51.022;7.082;2023-05-07T09:19:30;1.80;;;1.27;;
48327;SDS011;34136;51.022;7.082;2023-05-07T09:22:21;2.10;;;1.30;;
48327;SDS011;34136;51.022;7.082;2023-05-07T09:25:18;3.30;;;1.67;;
48327;SDS011;34136;51.022;7.082;2023-05-07T09:28:19;3.40;;;1.40;;
48327;SDS011;34136;51.022;7.082;2023-05-07T09:31:05;2.88;;;1.35;;
48327;SDS011;34136;51.022;7.082;2023-05-07T09:33:52;3.70;;;1.30;;
48327;SDS011;34136;51.022;7.082;2023-05-07T09:36:39;3.45;;;1.25;;
48327;SDS011;34136;51.022;7.082;2023-05-07T09:39:26;2.33;;;1.10;;
48327;SDS011;34136;51.022;7.082;2023-05-07T09:42:12;2.58;;;1.35;;
48327;SDS011;34136;51.022;7.082;2023-05-07T09:44:59;2.92;;;1.25;;
48327;SDS011;34136;51.022;7.082;2023-05-07T09:47:53;2.95;;;1.55;;
48327;SDS011;34136;51.022;7.082;2023-05-07T09:50:47;2.20;;;1.10;;
48327;SDS011;34136;51.022;7.082;2023-05-07T09:53:39;2.58;;;1.20;;
48327;SDS011;34136;51.022;7.082;2023-05-07T09:56:26;1.60;;;1.02;;
48327;SDS011;34136;51.022;7.082;2023-05-07T09:59:14;4.25;;;1.38;;
48327;SDS011;34136;51.022;7.082;2023-05-07T10:02:03;3.00;;;1.20;;
48327;SDS011;34136;51.022;7.082;2023-05-07T10:04:51;2.03;;;1.10;;
48327;SDS011;34136;51.022;7.082;2023-05-07T10:07:43;2.88;;;1.30;;
48327;SDS011;34136;51.022;7.082;2023-05-07T10:10:33;4.45;;;1.60;;
48327;SDS011;34136;51.022;7.082;2023-05-07T10:13:20;2.67;;;1.23;;
48327;SDS011;34136;51.022;7.082;2023-05-07T10:16:09;10.52;;;1.38;;
48327;SDS011;34136;51.022;7.082;2023-05-07T10:19:04;2.00;;;1.00;;
48327;SDS011;34136;51.022;7.082;2023-05-07T10:21:55;3.60;;;1.20;;
48327;SDS011;34136;51.022;7.082;2023-05-07T10:24:50;2.55;;;1.25;;
48327;SDS011;34136;51.022;7.082;2023-05-07T10:27:40;2.03;;;1.10;;
48327;SDS011;34136;51.022;7.082;2023-05-07T10:33:52;3.53;;;1.10;;
48327;SDS011;34136;51.022;7.082;2023-05-07T10:36:42;2.50;;;0.98;;
48327;SDS011;34136;51.022;7.082;2023-05-07T10:39:29;3.00;;;1.02;;
48327;SDS011;34136;51.022;7.082;2023-05-07T10:42:16;2.20;;;0.85;;
48327;SDS011;34136;51.022;7.082;2023-05-07T10:45:11;2.35;;;0.90;;
48327;SDS011;34136;51.022;7.082;2023-05-07T10:48:12;1.83;;;0.93;;
48327;SDS011;34136;51.022;7.082;2023-05-07T10:51:17;2.42;;;1.08;;
48327;SDS011;34136;51.022;7.082;2023-05-07T10:57:32;2.42;;;1.05;;
48327;SDS011;34136;51.022;7.082;2023-05-07T11:03:14;2.08;;;0.90;;
48327;SDS011;34136;51.022;7.082;2023-05-07T11:06:15;2.33;;;1.02;;
48327;SDS011;34136;51.022;7.082;2023-05-07T11:09:06;2.58;;;1.02;;
48327;SDS011;34136;51.022;7.082;2023-05-07T11:12:15;2.35;;;1.30;;
48327;SDS011;34136;51.022;7.082;2023-05-07T11:15:09;2.60;;;1.10;;
48327;SDS011;34136;51.022;7.082;2023-05-07T11:17:58;3.45;;;1.50;;
48327;SDS011;34136;51.022;7.082;2023-05-07T11:20:58;3.20;;;1.20;;
48327;SDS011;34136;51.022;7.082;2023-05-07T11:23:55;1.73;;;0.90;;
48327;SDS011;34136;51.022;7.082;2023-05-07T11:26:49;1.35;;;0.90;;
48327;SDS011;34136;51.022;7.082;2023-05-07T11:29:37;3.40;;;1.10;;
48327;SDS011;34136;51.022;7.082;2023-05-07T11:32:30;2.75;;;1.23;;
48327;SDS011;34136;51.022;7.082;2023-05-07T11:35:19;1.48;;;1.13;;
48327;SDS011;34136;51.022;7.082;2023-05-07T11:38:09;4.28;;;1.30;;
48327;SDS011;34136;51.022;7.082;2023-05-07T11:40:58;2.38;;;1.02;;
48327;SDS011;34136;51.022;7.082;2023-05-07T11:43:57;3.00;;;1.52;;
48327;SDS011;34136;51.022;7.082;2023-05-07T11:46:44;2.72;;;1.20;;
48327;SDS011;34136;51.022;7.082;2023-05-07T11:49:31;2.90;;;0.95;;
48327;SDS011;34136;51.022;7.082;2023-05-07T11:52:18;2.25;;;1.20;;
48327;SDS011;34136;51.022;7.082;2023-05-07T11:55:06;1.95;;;1.20;;
48327;SDS011;34136;51.022;7.082;2023-05-07T11:57:52;1.40;;;1.00;;
48327;SDS011;34136;51.022;7.082;2023-05-07T12:00:38;2.63;;;1.02;;
48327;SDS011;34136;51.022;7.082;2023-05-07T12:03:33;3.90;;;1.30;;
48327;SDS011;34136;51.022;7.082;2023-05-07T12:06:19;1.60;;;1.15;;
48327;SDS011;34136;51.022;7.082;2023-05-07T12:09:05;2.97;;;1.13;;
48327;SDS011;34136;51.022;7.082;2023-05-07T12:11:51;3.83;;;1.13;;
48327;SDS011;34136;51.022;7.082;2023-05-07T12:14:42;4.18;;;1.25;;
48327;SDS011;34136;51.022;7.082;2023-05-07T12:17:28;3.55;;;1.48;;
48327;SDS011;34136;51.022;7.082;2023-05-07T12:20:15;2.33;;;1.10;;
48327;SDS011;34136;51.022;7.082;2023-05-07T12:23:02;2.75;;;1.10;;
48327;SDS011;34136;51.022;7.082;2023-05-07T12:26:01;4.97;;;1.55;;
48327;SDS011;34136;51.022;7.082;2023-05-07T12:28:50;2.22;;;1.30;;
48327;SDS011;34136;51.022;7.082;2023-05-07T12:31:36;3.97;;;1.50;;
48327;SDS011;34136;51.022;7.082;2023-05-07T12:34:25;3.10;;;1.23;;
48327;SDS011;34136;51.022;7.082;2023-05-07T12:37:12;2.47;;;1.30;;
48327;SDS011;34136;51.022;7.082;2023-05-07T12:40:05;2.78;;;1.38;;
48327;SDS011;34136;51.022;7.082;2023-05-07T12:42:53;2.78;;;1.20;;
48327;SDS011;34136;51.022;7.082;2023-05-07T12:45:40;3.55;;;1.70;;
48327;SDS011;34136;51.022;7.082;2023-05-07T12:48:27;3.15;;;1.27;;
48327;SDS011;34136;51.022;7.082;2023-05-07T12:51:14;1.70;;;1.10;;
48327;SDS011;34136;51.022;7.082;2023-05-07T12:54:01;2.25;;;1.20;;
48327;SDS011;34136;51.022;7.082;2023-05-07T12:56:48;2.63;;;1.15;;
48327;SDS011;34136;51.022;7.082;2023-05-07T12:59:38;2.20;;;1.20;;
48327;SDS011;34136;51.022;7.082;2023-05-07T13:02:32;2.53;;;1.35;;
48327;SDS011;34136;51.022;7.082;2023-05-07T13:05:19;2.90;;;1.20;;
48327;SDS011;34136;51.022;7.082;2023-05-07T13:08:05;4.00;;;1.10;;
48327;SDS011;34136;51.022;7.082;2023-05-07T13:10:51;1.77;;;1.00;;
48327;SDS011;34136;51.022;7.082;2023-05-07T13:13:39;3.22;;;1.50;;
48327;SDS011;34136;51.022;7.082;2023-05-07T13:16:26;3.05;;;1.15;;
48327;SDS011;34136;51.022;7.082;2023-05-07T13:19:12;2.72;;;1.20;;
48327;SDS011;34136;51.022;7.082;2023-05-07T13:21:59;2.60;;;0.90;;
48327;SDS011;34136;51.022;7.082;2023-05-07T13:24:45;3.75;;;1.40;;
48327;SDS011;34136;51.022;7.082;2023-05-07T13:27:31;3.58;;;1.20;;
48327;SDS011;34136;51.022;7.082;2023-05-07T13:30:17;4.53;;;1.40;;
48327;SDS011;34136;51.022;7.082;2023-05-07T13:33:04;1.85;;;1.00;;
48327;SDS011;34136;51.022;7.082;2023-05-07T13:35:50;2.88;;;1.15;;
48327;SDS011;34136;51.022;7.082;2023-05-07T13:38:36;1.92;;;1.25;;
48327;SDS011;34136;51.022;7.082;2023-05-07T13:41:23;2.35;;;1.20;;
48327;SDS011;34136;51.022;7.082;2023-05-07T13:44:09;3.25;;;1.30;;
48327;SDS011;34136;51.022;7.082;2023-05-07T13:46:56;3.08;;;1.40;;
48327;SDS011;34136;51.022;7.082;2023-05-07T13:49:42;1.65;;;1.08;;
48327;SDS011;34136;51.022;7.082;2023-05-07T13:52:27;2.20;;;1.08;;
48327;SDS011;34136;51.022;7.082;2023-05-07T13:55:13;4.03;;;1.40;;
48327;SDS011;34136;51.022;7.082;2023-05-07T13:58:01;2.38;;;0.90;;
48327;SDS011;34136;51.022;7.082;2023-05-07T14:00:47;3.63;;;1.60;;
48327;SDS011;34136;51.022;7.082;2023-05-07T14:03:34;2.15;;;1.25;;
48327;SDS011;34136;51.022;7.082;2023-05-07T14:06:20;2.25;;;1.40;;
48327;SDS011;34136;51.022;7.082;2023-05-07T14:09:06;2.10;;;1.10;;
48327;SDS011;34136;51.022;7.082;2023-05-07T14:11:52;2.13;;;1.25;;
48327;SDS011;34136;51.022;7.082;2023-05-07T14:14:38;3.45;;;1.20;;
48327;SDS011;34136;51.022;7.082;2023-05-07T14:17:24;3.10;;;1.35;;
48327;SDS011;34136;51.022;7.082;2023-05-07T14:20:11;4.07;;;1.55;;
48327;SDS011;34136;51.022;7.082;2023-05-07T14:22:58;3.38;;;1.50;;
48327;SDS011;34136;51.022;7.082;2023-05-07T14:25:44;4.57;;;1.60;;
48327;SDS011;34136;51.022;7.082;2023-05-07T14:28:32;2.30;;;1.35;;
48327;SDS011;34136;51.022;7.082;2023-05-07T14:31:18;2.33;;;1.13;;
48327;SDS011;34136;51.022;7.082;2023-05-07T14:34:04;2.80;;;1.58;;
48327;SDS011;34136;51.022;7.082;2023-05-07T14:36:52;3.80;;;1.80;;
48327;SDS011;34136;51.022;7.082;2023-05-07T14:39:41;7.35;;;2.65;;
48327;SDS011;34136;51.022;7.082;2023-05-07T14:42:28;6.32;;;2.42;;
48327;SDS011;34136;51.022;7.082;2023-05-07T14:45:14;7.93;;;3.40;;
48327;SDS011;34136;51.022;7.082;2023-05-07T14:48:01;8.38;;;2.95;;
48327;SDS011;34136;51.022;7.082;2023-05-07T14:50:47;7.63;;;2.67;;
48327;SDS011;34136;51.022;7.082;2023-05-07T14:53:34;7.25;;;3.33;;
48327;SDS011;34136;51.022;7.082;2023-05-07T14:56:20;7.05;;;2.40;;
48327;SDS011;34136;51.022;7.082;2023-05-07T14:59:06;7.38;;;2.78;;
48327;SDS011;34136;51.022;7.082;2023-05-07T15:01:53;13.20;;;3.65;;
48327;SDS011;34136;51.022;7.082;2023-05-07T15:04:40;8.18;;;3.13;;
48327;SDS011;34136;51.022;7.082;2023-05-07T15:07:27;6.50;;;3.00;;
48327;SDS011;34136;51.022;7.082;2023-05-07T15:10:15;9.57;;;3.15;;
48327;SDS011;34136;51.022;7.082;2023-05-07T15:13:01;11.18;;;3.60;;
48327;SDS011;34136;51.022;7.082;2023-05-07T15:15:48;3.42;;;2.35;;
48327;SDS011;34136;51.022;7.082;2023-05-07T15:18:34;3.05;;;1.65;;
48327;SDS011;34136;51.022;7.082;2023-05-07T15:21:21;4.53;;;1.88;;
48327;SDS011;34136;51.022;7.082;2023-05-07T15:24:07;3.70;;;1.60;;
48327;SDS011;34136;51.022;7.082;2023-05-07T15:26:53;2.97;;;2.00;;
48327;SDS011;34136;51.022;7.082;2023-05-07T15:29:39;2.97;;;1.90;;
48327;SDS011;34136;51.022;7.082;2023-05-07T15:32:26;5.15;;;2.50;;
48327;SDS011;34136;51.022;7.082;2023-05-07T15:35:12;3.15;;;2.08;;
48327;SDS011;34136;51.022;7.082;2023-05-07T15:37:58;5.25;;;2.20;;
48327;SDS011;34136;51.022;7.082;2023-05-07T15:40:45;4.78;;;2.63;;
48327;SDS011;34136;51.022;7.082;2023-05-07T15:43:31;4.60;;;2.45;;
48327;SDS011;34136;51.022;7.082;2023-05-07T15:46:18;3.70;;;2.55;;
48327;SDS011;34136;51.022;7.082;2023-05-07T15:49:08;4.63;;;2.93;;
48327;SDS011;34136;51.022;7.082;2023-05-07T15:51:55;3.95;;;3.03;;
48327;SDS011;34136;51.022;7.082;2023-05-07T15:54:41;3.85;;;2.80;;
48327;SDS011;34136;51.022;7.082;2023-05-07T15:57:27;2.92;;;2.53;;
48327;SDS011;34136;51.022;7.082;2023-05-07T16:00:13;5.47;;;3.22;;
48327;SDS011;34136;51.022;7.082;2023-05-07T16:02:59;4.72;;;2.97;;
48327;SDS011;34136;51.022;7.082;2023-05-07T16:05:45;4.10;;;2.67;;
48327;SDS011;34136;51.022;7.082;2023-05-07T16:08:31;4.70;;;2.60;;
48327;SDS011;34136;51.022;7.082;2023-05-07T16:11:18;5.15;;;2.70;;
48327;SDS011;34136;51.022;7.082;2023-05-07T16:14:04;5.63;;;3.00;;
48327;SDS011;34136;51.022;7.082;2023-05-07T16:16:50;4.38;;;2.90;;
48327;SDS011;34136;51.022;7.082;2023-05-07T16:19:36;4.78;;;3.25;;
48327;SDS011;34136;51.022;7.082;2023-05-07T16:22:24;4.10;;;2.65;;
48327;SDS011;34136;51.022;7.082;2023-05-07T16:25:10;7.80;;;3.00;;
48327;SDS011;34136;51.022;7.082;2023-05-07T16:27:57;4.43;;;2.80;;
48327;SDS011;34136;51.022;7.082;2023-05-07T16:30:44;4.15;;;3.05;;
48327;SDS011;34136;51.022;7.082;2023-05-07T16:33:31;3.85;;;2.63;;
48327;SDS011;34136;51.022;7.082;2023-05-07T16:36:18;4.10;;;2.55;;
48327;SDS011;34136;51.022;7.082;2023-05-07T16:39:04;7.43;;;2.92;;
48327;SDS011;34136;51.022;7.082;2023-05-07T16:41:51;3.70;;;2.60;;
48327;SDS011;34136;51.022;7.082;2023-05-07T16:44:37;6.03;;;2.60;;
48327;SDS011;34136;51.022;7.082;2023-05-07T16:47:23;5.13;;;2.78;;
48327;SDS011;34136;51.022;7.082;2023-05-07T16:50:09;3.20;;;2.90;;
48327;SDS011;34136;51.022;7.082;2023-05-07T16:52:55;2.85;;;2.47;;
48327;SDS011;34136;51.022;7.082;2023-05-07T16:55:42;4.10;;;2.60;;
48327;SDS011;34136;51.022;7.082;2023-05-07T16:58:28;3.92;;;2.85;;
48327;SDS011;34136;51.022;7.082;2023-05-07T17:01:14;5.05;;;2.70;;